Time;durP1;ratioP1;P1;durP2;ratioP2;P2;SDS_P1;SDS_P2;PMS_P1;PMS_P2;Temp;Humidity;BMP_temperature;BMP_pressure;BME280_temperature;BME280_humidity;BME280_pressure;Samples;Min_cycle;Max_cycle;Signal;HPM_P1;HPM_P2
2022/01/27 00:02:24;;;;;;;59.93;26.17;;;-1.80;99.90;;;;;;5030003;28;20644;-76
2022/01/27 00:05:02;;;;;;;54.77;25.47;;;-1.80;99.90;;;;;;5074819;28;20200;-77
2022/01/27 00:07:30;;;;;;;52.37;25.50;;;-1.80;99.90;;;;;;5074806;28;20252;-76
2022/01/27 00:10:10;;;;;;;51.13;27.77;;;-1.70;99.90;;;;;;5074506;28;20580;-76
2022/01/27 00:12:37;;;;;;;52.23;25.73;;;-1.70;99.90;;;;;;5074755;28;20197;-76
2022/01/27 00:15:10;;;;;;;61.17;27.27;;;-1.70;99.90;;;;;;5074635;28;20197;-76
2022/01/27 00:17:41;;;;;;;62.83;27.73;;;-1.80;99.90;;;;;;5073658;28;20294;-76
2022/01/27 00:20:09;;;;;;;58.40;27.33;;;-1.80;99.90;;;;;;5073963;28;20295;-76
2022/01/27 00:22:36;;;;;;;56.50;25.73;;;-1.90;99.90;;;;;;5073670;28;20208;-76
2022/01/27 00:25:03;;;;;;;58.20;26.73;;;-1.90;99.90;;;;;;5073442;28;20196;-76
2022/01/27 00:27:30;;;;;;;51.67;24.87;;;-2.00;99.90;;;;;;5073686;28;20256;-77
2022/01/27 00:29:56;;;;;;;51.23;23.83;;;-2.00;99.90;;;;;;5073405;28;20200;-76
2022/01/27 00:32:24;;;;;;;52.77;26.17;;;-2.00;99.90;;;;;;5073288;28;20204;-76
2022/01/27 00:34:51;;;;;;;46.80;22.73;;;-2.00;99.90;;;;;;5073578;28;20205;-76
2022/01/27 00:37:17;;;;;;;52.10;24.57;;;-2.00;99.90;;;;;;5073933;28;20226;-76
2022/01/27 00:39:44;;;;;;;54.77;24.20;;;-2.00;99.90;;;;;;5076455;28;20203;-76
2022/01/27 00:42:11;;;;;;;53.60;25.50;;;-1.90;99.90;;;;;;5075430;28;20201;-76
2022/01/27 00:44:37;;;;;;;55.67;25.97;;;-1.90;99.90;;;;;;5074519;28;20201;-76
2022/01/27 00:47:05;;;;;;;54.03;25.43;;;-2.00;99.90;;;;;;5073899;28;20220;-76
2022/01/27 00:49:33;;;;;;;59.80;27.90;;;-1.90;99.90;;;;;;5073906;28;20204;-76
2022/01/27 00:52:03;;;;;;;57.07;25.43;;;-1.90;99.90;;;;;;5073452;28;20251;-76
2022/01/27 00:54:30;;;;;;;53.20;24.00;;;-2.00;99.90;;;;;;5073243;28;20258;-76
2022/01/27 00:57:05;;;;;;;55.87;26.33;;;-2.00;99.90;;;;;;5073305;28;20201;-76
2022/01/27 00:59:38;;;;;;;53.37;24.23;;;-2.10;99.90;;;;;;5073238;28;20227;-76
2022/01/27 01:02:14;;;;;;;52.80;25.20;;;-2.10;99.90;;;;;;5073065;28;20261;-77
2022/01/27 01:04:47;;;;;;;51.67;23.93;;;-2.20;99.90;;;;;;5073125;28;20203;-76
2022/01/27 01:07:15;;;;;;;53.00;24.63;;;-2.10;99.90;;;;;;5073081;28;20759;-76
2022/01/27 01:10:21;;;;;;;55.77;24.50;;;-2.00;99.90;;;;;;5073654;28;20239;-76
2022/01/27 01:13:27;;;;;;;57.80;25.80;;;-2.00;99.90;;;;;;5073212;28;20203;-76
2022/01/27 01:15:38;;;;;;;56.00;26.73;;;-2.00;99.90;;;;;;5073176;28;20229;-76
2022/01/27 01:18:19;;;;;;;57.13;27.63;;;-2.00;99.90;;;;;;5073356;28;20204;-76
2022/01/27 01:31:49;;;;;;;46.93;22.20;;;-2.20;99.90;;;;;;5076895;28;20199;-76
2022/01/27 01:34:19;;;;;;;46.10;22.53;;;-2.30;99.90;;;;;;5082156;28;20654;-76
2022/01/27 01:36:55;;;;;;;52.43;23.90;;;-2.20;99.90;;;;;;5078560;28;20205;-76
2022/01/27 01:39:22;;;;;;;46.27;23.30;;;-2.20;99.90;;;;;;5077379;28;20233;-76
2022/01/27 01:41:48;;;;;;;49.20;23.23;;;-2.30;99.90;;;;;;5077057;28;20201;-76
2022/01/27 01:44:15;;;;;;;51.40;24.60;;;-2.20;99.90;;;;;;5076611;28;20267;-76
2022/01/27 01:46:42;;;;;;;49.40;23.40;;;-2.20;99.90;;;;;;5076870;28;20253;-76
2022/01/27 01:49:09;;;;;;;44.27;22.70;;;-2.30;99.90;;;;;;5076626;28;20608;-76
2022/01/27 01:51:37;;;;;;;46.50;21.30;;;-2.30;99.90;;;;;;5076806;28;20207;-76
2022/01/27 01:54:06;;;;;;;40.97;22.27;;;-2.30;99.90;;;;;;5076214;28;20235;-76
2022/01/27 01:56:34;;;;;;;43.90;20.50;;;-2.40;99.90;;;;;;5076219;28;20204;-76
2022/01/27 01:59:01;;;;;;;39.93;20.70;;;-2.40;99.90;;;;;;5075759;28;20199;-76
2022/01/27 02:01:28;;;;;;;46.90;22.30;;;-2.30;99.90;;;;;;5075934;28;20199;-76
2022/01/27 02:03:54;;;;;;;40.20;20.67;;;-2.30;99.90;;;;;;5076187;28;20204;-76
2022/01/27 02:06:27;;;;;;;42.57;21.70;;;-2.40;99.90;;;;;;5076097;28;20683;-77
2022/01/27 02:20:05;;;;;;;40.83;21.90;;;-2.30;99.90;;;;;;5075467;28;20198;-76
2022/01/27 02:22:31;;;;;;;38.03;20.03;;;-2.30;99.90;;;;;;5075384;28;20262;-76
2022/01/27 02:24:59;;;;;;;41.33;20.30;;;-2.30;99.90;;;;;;5075451;28;20252;-76
2022/01/27 02:27:26;;;;;;;38.67;21.10;;;-2.40;99.90;;;;;;5075582;28;20236;-76
2022/01/27 02:29:53;;;;;;;39.30;19.93;;;-2.40;99.90;;;;;;5079541;28;20609;-76
2022/01/27 02:32:22;;;;;;;39.97;20.37;;;-2.40;99.90;;;;;;5075733;28;20350;-75
2022/01/27 02:34:48;;;;;;;35.53;19.63;;;-2.50;99.90;;;;;;5075496;28;20209;-75
2022/01/27 02:37:19;;;;;;;37.23;19.27;;;-2.50;99.90;;;;;;5075544;28;20203;-75
2022/01/27 02:39:45;;;;;;;31.33;18.17;;;-2.50;99.90;;;;;;5075984;28;20756;-75
2022/01/27 02:42:21;;;;;;;35.53;17.77;;;-2.50;99.90;;;;;;5075497;28;20666;-75
2022/01/27 02:44:57;;;;;;;38.00;19.10;;;-2.50;99.90;;;;;;5076213;28;20295;-76
2022/01/27 02:47:25;;;;;;;34.53;17.13;;;-2.50;99.90;;;;;;5075456;28;20272;-76
2022/01/27 02:49:52;;;;;;;32.00;18.73;;;-2.60;99.90;;;;;;5076172;28;20294;-75
2022/01/27 02:52:21;;;;;;;33.57;18.13;;;-2.60;99.90;;;;;;5075634;28;20221;-75
2022/01/27 02:54:47;;;;;;;30.47;18.20;;;-2.50;99.90;;;;;;5076194;28;20278;-75
2022/01/27 02:57:14;;;;;;;31.23;17.83;;;-2.50;99.90;;;;;;5074838;28;20204;-75
2022/01/27 02:59:41;;;;;;;29.90;16.97;;;-2.60;99.90;;;;;;5075346;28;20253;-75
2022/01/27 03:02:08;;;;;;;29.30;17.63;;;-2.60;99.90;;;;;;5074989;28;20203;-75
2022/01/27 03:04:34;;;;;;;32.90;18.53;;;-2.50;99.90;;;;;;5078376;28;20204;-76
2022/01/27 03:07:04;;;;;;;37.63;20.10;;;-2.60;99.90;;;;;;5081179;28;20199;-75
2022/01/27 03:09:33;;;;;;;35.57;19.20;;;-2.60;99.90;;;;;;5081308;28;20193;-76
2022/01/27 03:12:03;;;;;;;35.73;18.03;;;-2.50;99.90;;;;;;5081647;28;20629;-76
2022/01/27 03:14:30;;;;;;;36.53;19.53;;;-2.60;99.90;;;;;;5081333;28;20193;-76
2022/01/27 03:16:59;;;;;;;35.17;19.13;;;-2.60;99.90;;;;;;5082089;28;20196;-75
2022/01/27 03:19:26;;;;;;;37.90;20.47;;;-2.60;99.90;;;;;;5079235;28;20204;-76
2022/01/27 03:21:54;;;;;;;34.93;19.73;;;-2.60;99.90;;;;;;5078694;28;20229;-76
2022/01/27 03:24:21;;;;;;;32.03;18.87;;;-2.50;99.90;;;;;;5079788;28;20210;-76
2022/01/27 03:26:49;;;;;;;33.77;18.70;;;-2.60;99.90;;;;;;5075603;28;20203;-75
2022/01/27 03:29:17;;;;;;;38.53;19.23;;;-2.60;99.90;;;;;;5076145;28;20585;-75
2022/01/27 03:31:44;;;;;;;34.67;18.33;;;-2.60;99.90;;;;;;5075066;28;20667;-75
2022/01/27 03:34:12;;;;;;;33.30;18.73;;;-2.70;99.90;;;;;;5074892;28;20197;-75
2022/01/27 03:36:39;;;;;;;35.97;19.80;;;-2.70;99.90;;;;;;5074172;28;20199;-75
2022/01/27 03:39:07;;;;;;;36.13;19.17;;;-2.70;99.90;;;;;;5074395;28;20265;-75
2022/01/27 03:41:34;;;;;;;32.83;19.27;;;-2.70;99.90;;;;;;5074044;28;20282;-75
2022/01/27 03:44:04;;;;;;;37.10;18.47;;;-2.60;99.90;;;;;;5073967;28;20232;-75
2022/01/27 03:46:31;;;;;;;33.70;19.43;;;-2.70;99.90;;;;;;5073781;28;20218;-75
2022/01/27 03:48:57;;;;;;;33.63;17.90;;;-2.60;99.90;;;;;;5073805;28;20277;-75
2022/01/27 03:51:24;;;;;;;37.67;19.60;;;-2.70;99.90;;;;;;5073318;28;20203;-75
2022/01/27 03:53:51;;;;;;;31.37;16.13;;;-2.70;99.90;;;;;;5072780;28;20227;-75
2022/01/27 03:56:18;;;;;;;35.10;18.27;;;-2.70;99.90;;;;;;5073705;28;20206;-75
2022/01/27 03:58:45;;;;;;;34.20;17.00;;;-2.60;99.90;;;;;;5073886;28;20204;-75
2022/01/27 04:01:13;;;;;;;37.60;19.00;;;-2.60;99.90;;;;;;5073791;28;20198;-75
2022/01/27 04:03:40;;;;;;;35.13;19.00;;;-2.60;99.90;;;;;;5074237;28;20199;-75
2022/01/27 04:06:08;;;;;;;35.57;18.63;;;-2.60;99.90;;;;;;5074676;28;20202;-75
2022/01/27 04:08:37;;;;;;;34.00;18.03;;;-2.60;99.90;;;;;;5074632;28;20235;-75
2022/01/27 04:11:05;;;;;;;32.40;18.03;;;-2.60;99.90;;;;;;5074618;28;20200;-75
2022/01/27 04:13:32;;;;;;;37.33;20.07;;;-2.60;99.90;;;;;;5078436;28;20286;-76
2022/01/27 04:15:58;;;;;;;33.30;18.70;;;-2.60;99.90;;;;;;5080901;28;20301;-76
2022/01/27 04:18:27;;;;;;;36.23;19.40;;;-2.60;99.90;;;;;;5081284;28;20226;-75
2022/01/27 04:20:55;;;;;;;32.00;17.77;;;-2.60;99.90;;;;;;5082438;28;20198;-75
2022/01/27 04:23:22;;;;;;;38.50;19.97;;;-2.70;99.90;;;;;;5081406;28;20222;-76
2022/01/27 04:25:49;;;;;;;36.37;18.80;;;-2.60;99.90;;;;;;5081154;28;20262;-76
2022/01/27 04:28:21;;;;;;;34.83;18.63;;;-2.60;99.90;;;;;;5082077;28;20223;-76
2022/01/27 04:30:49;;;;;;;35.67;18.77;;;-2.60;99.90;;;;;;5082143;28;20196;-76
2022/01/27 04:33:17;;;;;;;37.83;19.67;;;-2.60;99.90;;;;;;5082219;28;20207;-76
2022/01/27 04:35:48;;;;;;;39.80;19.77;;;-2.60;99.90;;;;;;5081317;28;20207;-75
2022/01/27 04:38:26;;;;;;;39.73;19.43;;;-2.60;99.90;;;;;;5075010;28;20221;-75
2022/01/27 04:41:01;;;;;;;37.17;18.57;;;-2.60;99.90;;;;;;5073733;28;20211;-76
2022/01/27 04:43:35;;;;;;;36.87;18.83;;;-2.70;99.90;;;;;;5074259;28;20654;-76
2022/01/27 04:46:11;;;;;;;38.77;19.13;;;-2.60;99.90;;;;;;5074161;28;20199;-75
2022/01/27 04:48:44;;;;;;;36.87;18.53;;;-2.70;99.90;;;;;;5073739;28;20232;-76
2022/01/27 04:51:16;;;;;;;35.90;19.40;;;-2.70;99.90;;;;;;5073832;28;20220;-75
2022/01/27 04:53:47;;;;;;;33.40;17.37;;;-2.60;99.90;;;;;;5073351;28;20323;-75
2022/01/27 04:56:15;;;;;;;40.73;19.63;;;-2.70;99.90;;;;;;5073741;28;20203;-75
2022/01/27 04:58:45;;;;;;;35.50;17.83;;;-2.70;99.90;;;;;;5073570;28;20213;-75
2022/01/27 05:01:15;;;;;;;41.43;19.37;;;-2.70;99.90;;;;;;5073818;28;20195;-75
2022/01/27 05:03:46;;;;;;;35.57;17.90;;;-2.70;99.90;;;;;;5074910;28;20194;-75
2022/01/27 05:06:14;;;;;;;38.27;19.63;;;-2.80;99.90;;;;;;5077665;28;20543;-75
2022/01/27 05:08:42;;;;;;;39.53;19.27;;;-2.80;99.90;;;;;;5077804;28;20262;-75
2022/01/27 05:11:14;;;;;;;37.97;19.40;;;-2.80;99.90;;;;;;5077247;28;20199;-75
2022/01/27 05:13:48;;;;;;;36.70;18.47;;;-2.80;99.90;;;;;;5080874;28;20202;-75
2022/01/27 05:16:15;;;;;;;37.60;18.80;;;-2.80;99.90;;;;;;5077001;28;20305;-75
2022/01/27 05:18:42;;;;;;;37.43;18.47;;;-2.90;99.90;;;;;;5076676;28;20225;-75
2022/01/27 05:21:08;;;;;;;36.30;18.83;;;-2.90;99.90;;;;;;5076969;28;20407;-75
2022/01/27 05:23:36;;;;;;;39.43;19.37;;;-2.80;99.90;;;;;;5076719;28;20205;-75
2022/01/27 05:26:03;;;;;;;35.90;18.33;;;-2.80;99.90;;;;;;5077076;28;20206;-75
2022/01/27 05:28:30;;;;;;;43.60;20.40;;;-2.70;99.90;;;;;;5080206;28;20222;-76
2022/01/27 05:30:57;;;;;;;38.93;18.47;;;-2.70;99.90;;;;;;5080388;28;20200;-75
2022/01/27 05:33:24;;;;;;;44.37;20.30;;;-2.70;99.90;;;;;;5079857;28;20205;-75
2022/01/27 05:35:51;;;;;;;42.40;19.40;;;-2.70;99.90;;;;;;5080431;28;20257;-75
2022/01/27 05:38:17;;;;;;;39.77;18.03;;;-2.70;99.90;;;;;;5080295;28;20597;-75
2022/01/27 05:40:46;;;;;;;44.60;21.97;;;-2.70;99.90;;;;;;5080149;28;20206;-75
2022/01/27 05:43:13;;;;;;;46.47;20.67;;;-2.70;99.90;;;;;;5079214;28;20724;-74
2022/01/27 05:45:40;;;;;;;48.10;22.93;;;-2.60;99.90;;;;;;5081451;28;20659;-75
2022/01/27 05:48:07;;;;;;;47.80;21.17;;;-2.60;99.90;;;;;;5081517;28;20223;-75
2022/01/27 05:50:34;;;;;;;42.60;19.57;;;-2.60;99.90;;;;;;5079356;28;20209;-76
2022/01/27 05:53:04;;;;;;;42.43;19.27;;;-2.60;99.90;;;;;;5081333;28;20702;-76
2022/01/27 05:55:30;;;;;;;40.73;18.20;;;-2.60;99.90;;;;;;5076388;28;20593;-76
2022/01/27 05:57:59;;;;;;;35.90;18.23;;;-2.60;99.90;;;;;;5076544;28;20256;-76
2022/01/27 06:00:27;;;;;;;41.50;19.80;;;-2.60;99.90;;;;;;5076525;28;20246;-76
2022/01/27 06:02:54;;;;;;;43.77;19.80;;;-2.60;99.90;;;;;;5076772;28;20558;-76
2022/01/27 06:05:21;;;;;;;35.67;18.17;;;-2.60;99.90;;;;;;5076920;28;20198;-77
2022/01/27 06:07:48;;;;;;;39.97;19.47;;;-2.60;99.90;;;;;;5077536;28;20204;-76
2022/01/27 06:10:14;;;;;;;41.00;18.93;;;-2.60;99.90;;;;;;5079166;28;20200;-76
2022/01/27 06:12:49;;;;;;;40.37;17.67;;;-2.60;99.90;;;;;;5077011;28;20597;-75
2022/01/27 06:15:17;;;;;;;36.40;17.20;;;-2.50;99.90;;;;;;5075293;28;20200;-75
2022/01/27 06:17:45;;;;;;;41.97;18.73;;;-2.60;99.90;;;;;;5076265;28;20674;-75
2022/01/27 06:20:12;;;;;;;60.10;28.43;;;-2.60;99.90;;;;;;5076153;28;20214;-75
2022/01/27 06:22:39;;;;;;;127.53;51.27;;;-2.60;99.90;;;;;;5076111;28;20206;-75
2022/01/27 06:25:07;;;;;;;60.03;30.07;;;-2.60;99.90;;;;;;5075901;28;20252;-75
2022/01/27 06:27:34;;;;;;;38.83;20.73;;;-2.60;99.90;;;;;;5076165;28;20201;-75
2022/01/27 06:30:00;;;;;;;42.30;21.37;;;-2.60;99.90;;;;;;5075950;28;20253;-75
2022/01/27 06:32:28;;;;;;;37.97;19.07;;;-2.50;99.90;;;;;;5076940;28;20210;-75
2022/01/27 06:34:55;;;;;;;35.40;17.90;;;-2.50;99.90;;;;;;5078547;28;20200;-75
2022/01/27 06:37:22;;;;;;;41.83;19.00;;;-2.50;99.90;;;;;;5079018;28;20200;-76
2022/01/27 06:39:48;;;;;;;43.23;18.80;;;-2.50;99.90;;;;;;5078134;28;20201;-75
2022/01/27 06:42:15;;;;;;;37.97;19.10;;;-2.40;99.90;;;;;;5078109;28;20203;-75
2022/01/27 06:44:42;;;;;;;36.80;18.53;;;-2.40;99.90;;;;;;5078472;28;20196;-75
2022/01/27 06:47:09;;;;;;;40.77;19.17;;;-2.40;99.90;;;;;;5078686;28;20204;-75
2022/01/27 06:49:37;;;;;;;41.43;19.63;;;-2.50;99.90;;;;;;5078761;28;20812;-75
2022/01/27 06:52:04;;;;;;;37.97;18.80;;;-2.50;99.90;;;;;;5079310;28;20198;-75
2022/01/27 06:54:31;;;;;;;35.90;16.93;;;-2.50;99.90;;;;;;5078698;28;20206;-75
2022/01/27 06:56:58;;;;;;;40.90;18.87;;;-2.50;99.90;;;;;;5078848;28;20256;-75
2022/01/27 06:59:25;;;;;;;45.27;19.97;;;-2.50;99.90;;;;;;5077431;28;20257;-76
2022/01/27 07:01:51;;;;;;;46.40;20.63;;;-2.50;99.90;;;;;;5078839;28;20199;-74
2022/01/27 07:04:18;;;;;;;52.30;22.57;;;-2.50;99.90;;;;;;5079241;28;20201;-75
2022/01/27 07:06:48;;;;;;;49.00;21.97;;;-2.50;99.90;;;;;;5078786;28;20618;-76
2022/01/27 07:09:15;;;;;;;47.27;21.90;;;-2.50;99.90;;;;;;5076001;28;20231;-75
2022/01/27 07:11:41;;;;;;;47.50;21.93;;;-2.40;99.90;;;;;;5075277;28;20223;-76
2022/01/27 07:14:08;;;;;;;53.07;23.07;;;-2.50;99.90;;;;;;5075349;28;20228;-76
2022/01/27 07:16:35;;;;;;;57.87;22.33;;;-2.50;99.90;;;;;;5075005;28;20207;-75
2022/01/27 07:19:02;;;;;;;52.00;24.07;;;-2.50;99.90;;;;;;5074758;28;20200;-75
2022/01/27 07:21:28;;;;;;;51.50;22.50;;;-2.50;99.90;;;;;;5074585;28;20208;-75
2022/01/27 07:23:56;;;;;;;46.93;22.17;;;-2.40;99.90;;;;;;5074642;28;20206;-75
2022/01/27 07:26:25;;;;;;;53.53;22.33;;;-2.40;99.90;;;;;;5074403;28;20199;-75
2022/01/27 07:28:52;;;;;;;53.90;23.33;;;-2.40;99.90;;;;;;5074336;28;20317;-75
2022/01/27 07:31:19;;;;;;;56.47;23.40;;;-2.50;99.90;;;;;;5074749;28;20206;-75
2022/01/27 07:33:47;;;;;;;55.20;24.30;;;-2.60;99.90;;;;;;5074531;28;20206;-76
2022/01/27 07:36:14;;;;;;;55.53;25.00;;;-2.60;99.90;;;;;;5074480;28;20207;-75
2022/01/27 07:38:41;;;;;;;53.83;23.73;;;-2.60;99.90;;;;;;5074176;28;20203;-76
2022/01/27 07:41:09;;;;;;;48.87;20.90;;;-2.60;99.90;;;;;;5074377;28;20252;-75
2022/01/27 07:43:35;;;;;;;53.90;23.37;;;-2.50;99.90;;;;;;5074391;28;20203;-75
2022/01/27 07:46:03;;;;;;;58.17;23.57;;;-2.40;99.90;;;;;;5074400;28;20201;-75
2022/01/27 07:48:30;;;;;;;64.77;24.17;;;-2.40;99.90;;;;;;5074406;28;20232;-75
2022/01/27 07:50:57;;;;;;;58.67;24.57;;;-2.30;99.90;;;;;;5073909;28;20200;-75
2022/01/27 07:53:23;;;;;;;49.87;20.80;;;-2.40;99.90;;;;;;5073885;28;20791;-75
2022/01/27 07:55:50;;;;;;;58.07;25.17;;;-2.50;99.90;;;;;;5074089;28;20204;-75
2022/01/27 07:58:18;;;;;;;45.83;22.00;;;-2.50;99.90;;;;;;5075574;28;20200;-75
2022/01/27 08:00:45;;;;;;;49.73;21.43;;;-2.50;99.90;;;;;;5075813;28;20325;-77
2022/01/27 08:03:11;;;;;;;49.30;19.73;;;-2.60;99.90;;;;;;5073838;28;20203;-77
2022/01/27 08:05:38;;;;;;;46.63;20.93;;;-2.60;99.90;;;;;;5073943;28;20605;-74
2022/01/27 08:08:05;;;;;;;47.17;21.00;;;-2.60;99.90;;;;;;5074051;28;20200;-75
2022/01/27 08:10:37;;;;;;;48.60;21.83;;;-2.50;99.90;;;;;;5073772;28;20632;-75
2022/01/27 08:13:05;;;;;;;45.57;19.47;;;-2.50;99.90;;;;;;5073712;28;20714;-76
2022/01/27 08:15:33;;;;;;;45.47;20.70;;;-2.50;99.90;;;;;;5073742;28;20193;-77
2022/01/27 08:18:00;;;;;;;50.13;22.10;;;-2.50;99.90;;;;;;5073470;28;20264;-76
2022/01/27 08:20:27;;;;;;;49.10;21.43;;;-2.60;99.90;;;;;;5073445;28;20730;-76
2022/01/27 08:22:55;;;;;;;55.17;25.77;;;-2.60;99.90;;;;;;5073671;28;20200;-76
2022/01/27 08:25:23;;;;;;;56.23;24.53;;;-2.60;99.90;;;;;;5073692;28;20217;-76
2022/01/27 08:27:53;;;;;;;55.43;23.73;;;-2.60;99.90;;;;;;5073428;28;20207;-76
2022/01/27 08:30:22;;;;;;;51.10;24.00;;;-2.60;99.90;;;;;;5073236;28;20224;-77
2022/01/27 08:32:57;;;;;;;62.03;25.57;;;-2.50;99.90;;;;;;5073632;28;20208;-75
2022/01/27 08:35:25;;;;;;;62.93;25.43;;;-2.60;99.90;;;;;;5073622;28;20294;-75
2022/01/27 08:37:52;;;;;;;59.50;23.70;;;-2.60;99.90;;;;;;5073241;28;20203;-76
2022/01/27 08:40:20;;;;;;;55.57;23.93;;;-2.60;99.90;;;;;;5074107;28;20298;-75
2022/01/27 08:42:47;;;;;;;41.27;18.10;;;-2.60;99.90;;;;;;5073396;28;20710;-76
2022/01/27 08:45:16;;;;;;;44.83;20.23;;;-2.50;99.90;;;;;;5074070;28;20198;-77
2022/01/27 08:47:43;;;;;;;42.00;20.53;;;-2.50;99.90;;;;;;5075189;28;20225;-75
2022/01/27 08:50:13;;;;;;;39.40;20.17;;;-2.50;99.90;;;;;;5074903;28;20230;-76
2022/01/27 08:52:41;;;;;;;39.67;18.93;;;-2.50;99.90;;;;;;5076048;28;20279;-77
2022/01/27 08:55:09;;;;;;;41.87;18.20;;;-2.40;99.90;;;;;;5077537;28;20203;-76
2022/01/27 08:57:36;;;;;;;39.27;19.77;;;-2.50;99.90;;;;;;5075446;28;20204;-77
2022/01/27 09:00:05;;;;;;;34.10;19.63;;;-2.50;99.90;;;;;;5074946;28;20204;-77
2022/01/27 09:02:31;;;;;;;36.90;18.17;;;-2.40;99.90;;;;;;5075398;28;20689;-76
2022/01/27 09:04:58;;;;;;;42.80;20.07;;;-2.40;99.90;;;;;;5074549;28;20229;-77
2022/01/27 09:07:26;;;;;;;43.57;19.50;;;-2.40;99.90;;;;;;5074415;28;20205;-75
2022/01/27 09:09:53;;;;;;;39.03;18.50;;;-2.50;99.90;;;;;;5074444;28;20322;-75
2022/01/27 09:12:20;;;;;;;45.57;21.03;;;-2.50;99.90;;;;;;5073793;28;20716;-75
2022/01/27 09:14:46;;;;;;;42.93;19.53;;;-2.50;99.90;;;;;;5073401;28;20203;-75
2022/01/27 09:17:15;;;;;;;41.73;18.07;;;-2.50;99.90;;;;;;5073239;28;20200;-75
2022/01/27 09:19:45;;;;;;;46.20;19.60;;;-2.50;99.90;;;;;;5072887;28;20666;-75
2022/01/27 09:22:16;;;;;;;46.00;19.33;;;-2.50;99.90;;;;;;5073188;28;20364;-74
2022/01/27 09:24:55;;;;;;;47.00;20.97;;;-2.50;99.90;;;;;;5072914;28;20194;-75
2022/01/27 09:27:23;;;;;;;39.00;16.87;;;-2.50;99.90;;;;;;5072950;28;20198;-74
2022/01/27 09:29:50;;;;;;;43.37;20.63;;;-2.60;99.90;;;;;;5072777;28;20573;-74
2022/01/27 09:32:17;;;;;;;42.30;18.30;;;-2.60;99.90;;;;;;5054831;28;20203;-75
2022/01/27 09:34:44;;;;;;;40.47;18.00;;;-2.50;99.90;;;;;;5072808;28;20199;-77
2022/01/27 09:37:10;;;;;;;34.40;16.10;;;-2.50;99.90;;;;;;5072853;28;20199;-74
2022/01/27 09:39:38;;;;;;;35.67;16.77;;;-2.40;99.90;;;;;;5072574;28;20664;-75
2022/01/27 09:42:08;;;;;;;36.20;16.37;;;-2.40;99.90;;;;;;5072694;28;20667;-75
2022/01/27 09:44:37;;;;;;;29.00;14.63;;;-2.50;99.90;;;;;;5072899;28;20245;-75
2022/01/27 09:47:06;;;;;;;29.47;14.80;;;-2.50;99.90;;;;;;5072712;28;20248;-75
2022/01/27 09:49:37;;;;;;;28.07;14.30;;;-2.40;99.90;;;;;;5075848;28;20224;-75
2022/01/27 09:52:05;;;;;;;25.87;13.37;;;-2.40;99.90;;;;;;5075885;28;20200;-75
2022/01/27 09:54:32;;;;;;;27.87;13.87;;;-2.30;99.90;;;;;;5076660;28;20405;-75
2022/01/27 09:56:59;;;;;;;29.77;14.93;;;-2.30;99.90;;;;;;5076579;28;20201;-75
2022/01/27 09:59:28;;;;;;;37.73;18.30;;;-2.20;99.90;;;;;;5076115;28;20660;-76
2022/01/27 10:01:57;;;;;;;34.23;16.30;;;-2.20;99.90;;;;;;5076090;28;20197;-76
2022/01/27 10:04:40;;;;;;;32.30;16.50;;;-2.30;99.90;;;;;;5057780;28;20241;-76
2022/01/27 10:07:06;;;;;;;26.77;14.00;;;-2.20;99.90;;;;;;5076376;28;20249;-76
2022/01/27 10:09:34;;;;;;;31.77;17.43;;;-2.30;99.90;;;;;;5075949;28;20269;-76
2022/01/27 10:12:03;;;;;;;28.23;14.60;;;-2.30;99.90;;;;;;5075793;28;20230;-76
2022/01/27 10:14:37;;;;;;;25.80;13.93;;;-2.30;99.90;;;;;;5075826;28;20208;-76
2022/01/27 10:17:08;;;;;;;26.00;14.87;;;-2.30;99.90;;;;;;5076291;28;20199;-75
2022/01/27 10:19:36;;;;;;;25.50;13.40;;;-2.30;99.90;;;;;;5076250;28;20210;-76
2022/01/27 10:22:04;;;;;;;22.27;11.93;;;-2.10;99.90;;;;;;5076209;28;20200;-76
2022/01/27 10:24:33;;;;;;;27.33;13.17;;;-2.00;99.90;;;;;;5076570;28;20204;-77
2022/01/27 10:27:21;;;;;;;25.90;12.80;;;-2.10;99.90;;;;;;5076268;28;20199;-76
2022/01/27 10:30:35;;;;;;;26.63;14.13;;;-2.00;99.90;;;;;;5077120;28;20227;-77
2022/01/27 10:32:51;;;;;;;24.00;12.70;;;-1.80;99.90;;;;;;5076575;28;20211;-76
2022/01/27 10:35:20;;;;;;;26.77;13.00;;;-1.80;99.90;;;;;;5076769;28;20198;-77
2022/01/27 10:38:05;;;;;;;27.17;13.03;;;-1.80;99.90;;;;;;5076543;28;20200;-77
2022/01/27 10:40:33;;;;;;;23.80;12.70;;;-1.80;99.90;;;;;;5077663;28;20207;-76
2022/01/27 10:43:12;;;;;;;24.80;11.83;;;-1.80;99.90;;;;;;5060135;28;20232;-76
2022/01/27 10:45:59;;;;;;;25.30;12.60;;;-1.70;99.90;;;;;;5077931;28;20242;-76
2022/01/27 10:48:29;;;;;;;26.70;13.00;;;-1.70;99.90;;;;;;5077729;28;20201;-76
2022/01/27 10:51:02;;;;;;;25.40;12.37;;;-1.70;99.90;;;;;;5077273;28;20323;-76
2022/01/27 10:53:48;;;;;;;19.40;10.73;;;-1.60;99.90;;;;;;5076125;28;20236;-76
2022/01/27 10:56:18;;;;;;;23.57;12.03;;;-1.60;99.90;;;;;;5075396;28;20204;-76
2022/01/27 10:58:45;;;;;;;25.03;11.90;;;-1.70;99.90;;;;;;5075723;28;20601;-76
2022/01/27 11:01:22;;;;;;;26.97;13.23;;;-1.50;99.90;;;;;;5075584;28;20284;-76
2022/01/27 11:03:50;;;;;;;21.33;11.33;;;-1.60;99.90;;;;;;5075465;28;20216;-76
2022/01/27 11:06:17;;;;;;;22.33;12.33;;;-1.60;99.90;;;;;;5075490;28;20624;-76
2022/01/27 11:08:44;;;;;;;20.93;11.23;;;-1.50;99.90;;;;;;5075024;28;20223;-76
2022/01/27 11:11:11;;;;;;;25.07;12.40;;;-1.60;99.90;;;;;;5074810;28;20771;-75
2022/01/27 11:13:38;;;;;;;21.73;10.93;;;-1.50;99.90;;;;;;5075855;28;20251;-74
2022/01/27 11:16:11;;;;;;;23.47;11.77;;;-1.50;99.90;;;;;;5075977;28;20201;-74
2022/01/27 11:18:40;;;;;;;22.07;11.57;;;-1.50;99.90;;;;;;5078560;28;20668;-75
2022/01/27 11:21:12;;;;;;;23.30;9.90;;;-1.50;99.90;;;;;;5078413;28;20200;-76
2022/01/27 11:24:01;;;;;;;20.53;11.33;;;-1.50;99.90;;;;;;5077943;28;20201;-76
2022/01/27 11:26:29;;;;;;;20.03;11.07;;;-1.40;99.90;;;;;;5077029;28;20215;-75
2022/01/27 11:28:57;;;;;;;19.23;10.37;;;-1.30;99.90;;;;;;5076567;28;20208;-75
2022/01/27 11:31:38;;;;;;;24.80;10.83;;;-1.40;99.90;;;;;;5076894;28;20275;-75
2022/01/27 11:34:08;;;;;;;21.13;10.77;;;-1.40;99.90;;;;;;5077055;28;20189;-75
2022/01/27 11:36:36;;;;;;;23.13;11.50;;;-1.40;99.90;;;;;;5077034;28;20246;-75
2022/01/27 11:39:11;;;;;;;22.23;10.93;;;-1.30;99.90;;;;;;5078668;28;20262;-75
2022/01/27 11:41:47;;;;;;;25.60;12.37;;;-1.30;99.90;;;;;;5076159;28;20204;-74
2022/01/27 11:44:22;;;;;;;20.03;10.57;;;-1.30;99.90;;;;;;5074742;28;20197;-75
2022/01/27 11:47:22;;;;;;;20.63;11.00;;;-1.20;99.90;;;;;;5074473;28;20279;-76
2022/01/27 11:49:59;;;;;;;25.60;11.20;;;-1.20;99.90;;;;;;5074495;28;20208;-76
2022/01/27 11:52:28;;;;;;;23.03;12.03;;;-1.20;99.90;;;;;;5073975;28;20239;-75
2022/01/27 11:55:18;;;;;;;25.80;12.13;;;-1.10;99.90;;;;;;5074555;28;20201;-76
2022/01/27 11:57:48;;;;;;;24.03;12.77;;;-1.00;99.90;;;;;;5074456;28;20270;-75
2022/01/27 12:00:17;;;;;;;26.00;12.53;;;-1.00;99.90;;;;;;5074361;28;20204;-75
2022/01/27 12:03:09;;;;;;;22.30;11.00;;;-1.00;99.90;;;;;;5074361;28;20208;-76
2022/01/27 12:05:39;;;;;;;24.77;11.93;;;-1.00;99.90;;;;;;5074435;28;20223;-76
2022/01/27 12:08:23;;;;;;;26.37;11.83;;;-0.90;99.90;;;;;;5073971;28;20201;-76
2022/01/27 12:10:55;;;;;;;27.00;13.20;;;-0.90;99.90;;;;;;5074081;28;20228;-76
2022/01/27 12:14:01;;;;;;;24.30;12.30;;;-0.90;99.90;;;;;;5073192;28;20247;-75
2022/01/27 12:16:53;;;;;;;23.43;12.43;;;-1.00;99.90;;;;;;5073973;28;20258;-75
2022/01/27 12:19:20;;;;;;;21.77;12.03;;;-0.90;99.90;;;;;;5073746;28;20197;-76
2022/01/27 12:22:00;;;;;;;21.47;12.37;;;-1.00;99.90;;;;;;5073693;28;20200;-76
2022/01/27 12:24:29;;;;;;;26.77;12.23;;;-0.90;99.90;;;;;;5074348;28;20227;-76
2022/01/27 12:26:58;;;;;;;25.17;12.93;;;-0.90;99.90;;;;;;5073916;28;20644;-75
2022/01/27 12:29:29;;;;;;;24.53;11.03;;;-0.90;99.90;;;;;;5073797;28;20197;-75
2022/01/27 12:31:58;;;;;;;26.00;13.63;;;-0.90;99.90;;;;;;5074813;28;20229;-76
2022/01/27 12:34:26;;;;;;;26.83;12.73;;;-0.90;99.90;;;;;;5079494;28;20220;-76
2022/01/27 12:37:03;;;;;;;28.77;12.43;;;-0.80;99.90;;;;;;5074024;28;20201;-76
2022/01/27 12:39:31;;;;;;;27.73;13.47;;;-0.90;99.90;;;;;;5074112;28;20655;-75
2022/01/27 12:42:01;;;;;;;25.37;12.40;;;-0.90;99.90;;;;;;5073799;28;20197;-75
2022/01/27 12:44:29;;;;;;;26.50;12.77;;;-0.90;99.90;;;;;;5073755;28;20216;-75
2022/01/27 12:47:14;;;;;;;29.47;14.37;;;-0.80;99.90;;;;;;5073782;28;20258;-76
2022/01/27 12:49:46;;;;;;;25.30;13.83;;;-0.80;99.90;;;;;;5073876;28;20196;-75
2022/01/27 12:52:17;;;;;;;26.60;13.83;;;-0.80;99.90;;;;;;5073670;28;20225;-75
2022/01/27 12:54:47;;;;;;;32.70;15.07;;;-0.80;99.90;;;;;;5073854;28;20196;-76
2022/01/27 12:57:13;;;;;;;27.93;13.97;;;-0.80;99.90;;;;;;5073460;28;20291;-76
2022/01/27 12:59:42;;;;;;;23.17;12.70;;;-0.70;99.90;;;;;;5073627;28;20197;-76
2022/01/27 13:02:10;;;;;;;25.60;13.40;;;-0.70;99.90;;;;;;5073445;28;20205;-76
2022/01/27 13:04:39;;;;;;;34.40;15.03;;;-0.70;99.90;;;;;;5073589;28;20223;-75